Orbital elements of COSMOS 970 DEB
| Launched | 20 December 1977 |
| Flight ended | – |
| Launch site | Tyuratam Missile and Space Center, Kazakhstan (Also known as Baikonur Cosmodrome) |
| Owner | Commonwealth of Independent States (former USSR) |
| NORAD ID | 13503 |
| Date fetched |
Epoch osculation |
Inc. [°] |
Ecc. | RA asc node [hr] |
Arg Peri. [°] |
Mean anom [°] |
Mean motion [rev/day] |
Abs. mag |
| Date fetched |
Epoch osculation |
Inc. [°] |
Ecc. | RA asc node [hr] |
Arg Peri. [°] |
Mean anom [°] |
Mean motion [rev/day] |
Abs. mag |
| 2026 May 03 17:57 | 2026 Apr 30 14:12:27 | 66.4695 | 0.00747 | 19.0080 | 122.6209 | 314.7695 | 13.52408 | – |
| 2026 May 02 17:57 | 2026 Apr 30 14:12:27 | 66.4695 | 0.00747 | 19.0080 | 122.6209 | 314.7695 | 13.52408 | – |
| 2026 May 01 17:56 | 2026 Apr 30 14:12:27 | 66.4695 | 0.00747 | 19.0080 | 122.6209 | 314.7695 | 13.52408 | – |
| 2026 Apr 30 17:56 | 2026 Apr 30 14:12:27 | 66.4695 | 0.00747 | 19.0080 | 122.6209 | 314.7695 | 13.52408 | – |
| 2026 Apr 29 17:57 | 2026 Apr 24 06:03:27 | 66.4695 | 0.00749 | 19.9878 | 126.5886 | 314.7695 | 13.52408 | – |
| 2026 Apr 28 17:56 | 2026 Apr 24 06:03:27 | 66.4695 | 0.00749 | 19.9878 | 126.5886 | 314.7695 | 13.52408 | – |
| 2026 Apr 27 17:58 | 2026 Apr 24 06:03:27 | 66.4695 | 0.00749 | 19.9878 | 126.5886 | 314.7695 | 13.52408 | – |
| 2026 Apr 26 17:58 | 2026 Apr 24 06:03:27 | 66.4695 | 0.00749 | 19.9878 | 126.5886 | 314.7695 | 13.52408 | – |
| 2026 Apr 25 17:58 | 2026 Apr 24 06:03:27 | 66.4695 | 0.00749 | 19.9878 | 126.5886 | 314.7695 | 13.52408 | – |
| 2026 Apr 24 17:59 | 2026 Apr 24 06:03:27 | 66.4695 | 0.00749 | 19.9878 | 126.5886 | 314.7695 | 13.52408 | – |
| 2026 Apr 23 17:57 | 2026 Apr 19 07:09:18 | 66.4701 | 0.00751 | 20.7534 | 129.7170 | 314.7695 | 13.52408 | – |
| 2026 Apr 22 17:57 | 2026 Apr 19 07:09:18 | 66.4701 | 0.00751 | 20.7534 | 129.7170 | 314.7695 | 13.52408 | – |
| 2026 Apr 21 17:57 | 2026 Apr 19 07:09:18 | 66.4701 | 0.00751 | 20.7534 | 129.7170 | 314.7695 | 13.52408 | – |
| 2026 Apr 20 17:57 | 2026 Apr 19 07:09:18 | 66.4701 | 0.00751 | 20.7534 | 129.7170 | 314.7695 | 13.52408 | – |
| 2026 Apr 19 17:58 | 2026 Apr 19 07:09:18 | 66.4701 | 0.00751 | 20.7534 | 129.7170 | 314.7695 | 13.52408 | – |
| 2026 Apr 18 17:56 | 2026 Apr 12 23:59:15 | 66.4712 | 0.00753 | 21.7268 | 133.7079 | 314.7695 | 13.52408 | – |
| 2026 Apr 16 17:57 | 2026 Apr 12 23:59:15 | 66.4712 | 0.00753 | 21.7268 | 133.7079 | 314.7695 | 13.52408 | – |
| 2026 Apr 14 17:57 | 2026 Apr 12 23:59:15 | 66.4712 | 0.00753 | 21.7268 | 133.7079 | 314.7695 | 13.52408 | – |
| 2026 Apr 13 17:57 | 2026 Apr 12 23:59:15 | 66.4712 | 0.00753 | 21.7268 | 133.7079 | 314.7695 | 13.52408 | – |
| 2026 Apr 12 17:57 | 2026 Apr 08 14:50:06 | 66.4720 | 0.00754 | 22.4038 | 136.5071 | 314.7695 | 13.52408 | – |
| 2026 Apr 11 17:57 | 2026 Apr 08 14:50:06 | 66.4720 | 0.00754 | 22.4038 | 136.5071 | 314.7695 | 13.52408 | – |
| 2026 Apr 10 17:58 | 2026 Apr 08 14:50:06 | 66.4720 | 0.00754 | 22.4038 | 136.5071 | 314.7695 | 13.52408 | – |
| 2026 Apr 09 18:01 | 2026 Apr 08 14:50:06 | 66.4720 | 0.00754 | 22.4038 | 136.5071 | 314.7695 | 13.52408 | – |
| 2026 Apr 08 17:57 | 2026 Apr 08 14:50:06 | 66.4720 | 0.00754 | 22.4038 | 136.5071 | 314.7695 | 13.52408 | – |
| 2026 Apr 07 17:57 | 2026 Apr 02 03:15:36 | 66.4727 | 0.00756 | 23.4054 | 140.6752 | 314.7695 | 13.52408 | – |
| 2026 Apr 06 17:57 | 2026 Apr 02 03:15:36 | 66.4727 | 0.00756 | 23.4054 | 140.6752 | 314.7695 | 13.52408 | – |